createdAt,value
2023-01-04T00:04:44.880Z,7.05
2023-01-04T00:09:46.768Z,7.13
2023-01-04T00:14:48.609Z,7.10
2023-01-04T00:19:50.408Z,3.25
2023-01-04T00:24:52.234Z,7.18
2023-01-04T00:29:54.036Z,5.63
2023-01-04T00:34:55.836Z,4.13
2023-01-04T00:39:57.690Z,3.83
2023-01-04T00:44:59.498Z,8.10
2023-01-04T00:50:01.298Z,4.25
2023-01-04T00:55:03.132Z,4.00
2023-01-04T01:00:05.194Z,6.85
2023-01-04T01:05:07.464Z,6.82
2023-01-04T01:10:09.325Z,6.05
2023-01-04T01:15:11.240Z,4.53
2023-01-04T01:20:13.095Z,5.80
2023-01-04T01:25:14.983Z,6.47
2023-01-04T01:30:16.811Z,7.28
2023-01-04T01:35:18.638Z,8.85
2023-01-04T01:40:20.468Z,7.18
2023-01-04T01:45:30.825Z,5.28
2023-01-04T01:50:38.805Z,4.72
2023-01-04T01:55:42.640Z,5.25
2023-01-04T02:00:44.523Z,3.75
2023-01-04T02:05:50.081Z,9.23
2023-01-04T02:10:52.219Z,5.47
2023-01-04T02:16:10.029Z,6.07
2023-01-04T02:21:16.579Z,5.60
2023-01-04T02:26:18.344Z,7.50
2023-01-04T02:31:39.192Z,8.80
2023-01-04T02:36:48.106Z,7.93
2023-01-04T02:41:52.294Z,9.32
2023-01-04T02:47:02.951Z,6.53
2023-01-04T02:52:04.916Z,4.53
2023-01-04T02:57:25.378Z,5.57
2023-01-04T03:02:33.293Z,5.28
2023-01-04T03:07:55.537Z,7.32
2023-01-04T03:12:59.681Z,4.07
2023-01-04T03:18:07.488Z,5.70
2023-01-04T03:23:11.310Z,4.75
2023-01-04T03:28:14.303Z,7.07
2023-01-04T03:33:16.785Z,4.65
2023-01-04T03:38:23.778Z,7.20
2023-01-04T03:43:31.436Z,5.30
2023-01-04T03:48:59.612Z,6.35
2023-01-04T03:54:01.390Z,3.97
2023-01-04T03:59:04.097Z,3.92
2023-01-04T04:04:06.016Z,6.45
2023-01-04T04:09:08.004Z,3.90
2023-01-04T04:14:09.809Z,3.42
2023-01-04T04:19:11.664Z,4.28
2023-01-04T04:24:19.071Z,3.70
2023-01-04T04:29:22.050Z,3.35
2023-01-04T04:39:26.709Z,4.07
2023-01-04T04:44:29.045Z,4.87
2023-01-04T04:49:31.196Z,5.20
2023-01-04T04:54:33.024Z,3.50
2023-01-04T04:59:34.819Z,3.17
2023-01-04T05:04:36.626Z,2.75
2023-01-04T05:09:38.427Z,2.88
2023-01-04T05:14:40.283Z,3.22
2023-01-04T05:19:42.131Z,4.68
2023-01-04T05:24:43.956Z,4.53
2023-01-04T05:29:45.815Z,4.18
2023-01-04T05:34:47.722Z,6.70
2023-01-04T05:39:49.584Z,4.22
2023-01-04T05:44:55.339Z,5.72
2023-01-04T05:49:57.141Z,5.90
2023-01-04T05:54:58.938Z,6.28
2023-01-04T06:00:00.784Z,6.00
2023-01-04T06:05:02.765Z,6.88
2023-01-04T06:10:05.384Z,9.20
2023-01-04T06:15:08.255Z,7.57
2023-01-04T06:20:10.877Z,9.57
2023-01-04T06:25:13.201Z,8.10
2023-01-04T06:30:15.138Z,8.48
2023-01-04T06:35:16.950Z,6.65
2023-01-04T06:40:18.825Z,7.75
2023-01-04T06:45:20.642Z,9.02
2023-01-04T06:50:22.445Z,7.10
2023-01-04T06:55:24.465Z,8.43
2023-01-04T07:00:26.974Z,7.47
2023-01-04T07:05:28.800Z,7.97
2023-01-04T07:10:30.831Z,6.65
2023-01-04T07:15:38.788Z,5.85
2023-01-04T07:20:41.856Z,5.25
2023-01-04T07:25:44.051Z,4.27
2023-01-04T07:30:45.910Z,3.78
2023-01-04T07:35:47.766Z,3.97
2023-01-04T07:40:56.193Z,3.85
2023-01-04T07:45:58.881Z,6.10
2023-01-04T07:51:00.893Z,3.47
2023-01-04T07:56:02.825Z,6.15
2023-01-04T08:01:08.938Z,4.65
2023-01-04T08:06:12.182Z,4.95
2023-01-04T08:11:15.575Z,2.63
2023-01-04T08:16:21.805Z,3.50
2023-01-04T08:21:24.242Z,2.72
2023-01-04T08:26:26.262Z,4.00
2023-01-04T08:31:29.693Z,3.15
2023-01-04T08:36:32.926Z,3.05
2023-01-04T08:46:56.998Z,4.30
2023-01-04T08:51:58.918Z,4.85
2023-01-04T08:57:00.833Z,4.63
2023-01-04T09:02:05.743Z,5.57
2023-01-04T09:07:08.236Z,6.18
2023-01-04T09:12:10.140Z,5.80
2023-01-04T09:17:12.048Z,5.43
2023-01-04T09:22:13.946Z,5.80
2023-01-04T09:27:15.869Z,6.03
2023-01-04T09:32:17.859Z,5.22
2023-01-04T09:37:19.701Z,4.75
2023-01-04T09:42:35.081Z,5.57
2023-01-04T09:47:44.885Z,5.57
2023-01-04T09:53:10.180Z,3.28
2023-01-04T09:58:23.489Z,2.78
2023-01-04T10:03:27.756Z,3.20
2023-01-04T10:08:29.793Z,3.60
2023-01-04T10:13:39.791Z,2.83
2023-01-04T10:19:28.704Z,2.65
2023-01-04T10:24:45.786Z,3.50
2023-01-04T10:30:06.171Z,1.98
2023-01-04T19:07:30.918Z,19.92
2023-01-04T19:12:33.333Z,13.93
2023-01-04T20:08:00.075Z,24.70
2023-01-04T20:13:02.273Z,18.87
2023-01-04T20:18:07.302Z,21.10
2023-01-04T20:23:15.202Z,20.63
2023-01-04T20:28:18.221Z,18.95
2023-01-04T20:33:20.038Z,15.63
2023-01-04T20:38:21.865Z,15.40
2023-01-04T20:43:23.925Z,22.65
2023-01-04T20:48:26.135Z,23.00
2023-01-04T20:53:27.967Z,13.85
2023-01-04T20:58:29.866Z,18.70
2023-01-04T21:03:31.819Z,26.30
2023-01-04T21:08:35.718Z,25.75
2023-01-04T21:13:38.125Z,19.33
2023-01-04T21:18:39.958Z,22.40
2023-01-04T21:23:43.472Z,22.15
2023-01-04T21:28:46.892Z,17.13
2023-01-04T21:33:49.691Z,22.80
2023-01-04T21:38:52.487Z,15.60
2023-01-04T21:43:56.971Z,18.00
2023-01-04T21:48:59.980Z,21.52
2023-01-04T21:54:02.044Z,19.27
2023-01-04T21:59:04.245Z,19.70
2023-01-04T22:04:06.184Z,25.23
2023-01-04T22:09:08.345Z,27.52
2023-01-04T22:14:10.618Z,23.08
2023-01-04T22:19:13.306Z,26.55
2023-01-04T22:24:15.729Z,26.63
2023-01-04T22:29:17.693Z,19.90
2023-01-04T22:34:19.543Z,30.55
2023-01-04T22:39:21.409Z,34.28
2023-01-04T22:44:23.463Z,19.98
2023-01-04T22:49:25.477Z,16.98
2023-01-04T22:54:27.302Z,21.70
2023-01-04T22:59:29.112Z,20.25
2023-01-04T23:04:31.226Z,23.33
2023-01-04T23:09:33.393Z,14.77
2023-01-04T23:14:35.511Z,27.10
2023-01-04T23:19:37.339Z,20.73
2023-01-04T23:24:39.428Z,20.63
2023-01-04T23:29:41.588Z,18.80
2023-01-04T23:34:43.403Z,17.23
2023-01-04T23:39:45.471Z,17.00
2023-01-04T23:44:47.314Z,23.23
2023-01-04T23:49:49.149Z,15.10
2023-01-04T23:54:50.965Z,19.20
2023-01-04T23:59:52.856Z,17.02
